sensor_id;sensor_type;location;lat;lon;timestamp;temperature;humidity
31799;DHT22;18374;51.136;3.502;2023-04-24T00:01:46;8.60;99.90
31799;DHT22;18374;51.136;3.502;2023-04-24T00:04:14;8.60;99.90
31799;DHT22;18374;51.136;3.502;2023-04-24T00:06:44;8.60;99.90
31799;DHT22;18374;51.136;3.502;2023-04-24T00:09:16;8.60;99.90
31799;DHT22;18374;51.136;3.502;2023-04-24T00:11:44;8.60;99.90
31799;DHT22;18374;51.136;3.502;2023-04-24T00:14:12;8.60;99.90
31799;DHT22;18374;51.136;3.502;2023-04-24T00:16:39;8.60;99.90
31799;DHT22;18374;51.136;3.502;2023-04-24T00:19:07;8.60;99.90
31799;DHT22;18374;51.136;3.502;2023-04-24T00:21:35;8.60;99.90
31799;DHT22;18374;51.136;3.502;2023-04-24T00:24:03;8.60;99.90
31799;DHT22;18374;51.136;3.502;2023-04-24T00:26:31;8.60;99.90
31799;DHT22;18374;51.136;3.502;2023-04-24T00:28:59;8.70;99.90
31799;DHT22;18374;51.136;3.502;2023-04-24T00:31:27;8.70;99.90
31799;DHT22;18374;51.136;3.502;2023-04-24T00:33:55;8.70;99.90
31799;DHT22;18374;51.136;3.502;2023-04-24T00:36:22;8.70;99.90
31799;DHT22;18374;51.136;3.502;2023-04-24T00:38:50;8.70;99.90
31799;DHT22;18374;51.136;3.502;2023-04-24T00:41:18;8.70;99.90
31799;DHT22;18374;51.136;3.502;2023-04-24T00:43:46;8.70;99.90
31799;DHT22;18374;51.136;3.502;2023-04-24T00:46:14;8.70;99.90
31799;DHT22;18374;51.136;3.502;2023-04-24T00:48:43;8.70;99.90
31799;DHT22;18374;51.136;3.502;2023-04-24T00:51:11;8.60;99.90
31799;DHT22;18374;51.136;3.502;2023-04-24T00:53:39;8.60;99.90
31799;DHT22;18374;51.136;3.502;2023-04-24T00:56:07;8.70;99.90
31799;DHT22;18374;51.136;3.502;2023-04-24T00:58:35;8.70;99.90
31799;DHT22;18374;51.136;3.502;2023-04-24T01:01:03;8.70;99.90
31799;DHT22;18374;51.136;3.502;2023-04-24T01:03:34;8.60;99.90
31799;DHT22;18374;51.136;3.502;2023-04-24T01:06:05;8.70;99.90
31799;DHT22;18374;51.136;3.502;2023-04-24T01:08:33;8.70;99.90
31799;DHT22;18374;51.136;3.502;2023-04-24T01:11:04;8.70;99.90
31799;DHT22;18374;51.136;3.502;2023-04-24T01:13:33;8.70;99.90
31799;DHT22;18374;51.136;3.502;2023-04-24T01:16:01;8.70;99.90
31799;DHT22;18374;51.136;3.502;2023-04-24T01:18:29;8.70;99.90
31799;DHT22;18374;51.136;3.502;2023-04-24T01:20:58;8.70;99.90
31799;DHT22;18374;51.136;3.502;2023-04-24T01:23:27;8.70;99.90
31799;DHT22;18374;51.136;3.502;2023-04-24T01:25:55;8.70;99.90
31799;DHT22;18374;51.136;3.502;2023-04-24T01:28:26;8.70;99.90
31799;DHT22;18374;51.136;3.502;2023-04-24T01:30:54;8.70;99.90
31799;DHT22;18374;51.136;3.502;2023-04-24T01:33:23;8.60;99.90
31799;DHT22;18374;51.136;3.502;2023-04-24T01:35:51;8.70;99.90
31799;DHT22;18374;51.136;3.502;2023-04-24T01:38:19;8.70;99.90
31799;DHT22;18374;51.136;3.502;2023-04-24T01:40:47;8.70;99.90
31799;DHT22;18374;51.136;3.502;2023-04-24T01:43:15;8.70;99.90
31799;DHT22;18374;51.136;3.502;2023-04-24T01:45:43;8.70;99.90
31799;DHT22;18374;51.136;3.502;2023-04-24T01:48:12;8.70;99.90
31799;DHT22;18374;51.136;3.502;2023-04-24T01:50:40;8.70;99.90
31799;DHT22;18374;51.136;3.502;2023-04-24T01:53:12;8.70;99.90
31799;DHT22;18374;51.136;3.502;2023-04-24T01:55:40;8.70;99.90
31799;DHT22;18374;51.136;3.502;2023-04-24T01:58:08;8.70;99.90
31799;DHT22;18374;51.136;3.502;2023-04-24T02:00:36;8.70;99.90
31799;DHT22;18374;51.136;3.502;2023-04-24T02:03:04;8.70;99.90
31799;DHT22;18374;51.136;3.502;2023-04-24T02:05:32;8.60;99.90
31799;DHT22;18374;51.136;3.502;2023-04-24T02:08:03;8.60;99.90
31799;DHT22;18374;51.136;3.502;2023-04-24T02:10:30;8.60;99.90
31799;DHT22;18374;51.136;3.502;2023-04-24T02:12:58;8.60;99.90
31799;DHT22;18374;51.136;3.502;2023-04-24T02:15:27;8.60;99.90
31799;DHT22;18374;51.136;3.502;2023-04-24T02:17:56;8.60;99.90
31799;DHT22;18374;51.136;3.502;2023-04-24T02:20:24;8.60;99.90
31799;DHT22;18374;51.136;3.502;2023-04-24T02:22:53;8.50;99.90
31799;DHT22;18374;51.136;3.502;2023-04-24T02:25:21;8.50;99.90
31799;DHT22;18374;51.136;3.502;2023-04-24T02:27:49;8.50;99.90
31799;DHT22;18374;51.136;3.502;2023-04-24T02:30:17;8.50;99.90
31799;DHT22;18374;51.136;3.502;2023-04-24T02:32:45;8.50;99.90
31799;DHT22;18374;51.136;3.502;2023-04-24T02:35:13;8.50;99.90
31799;DHT22;18374;51.136;3.502;2023-04-24T02:37:40;8.50;99.90
31799;DHT22;18374;51.136;3.502;2023-04-24T02:40:12;8.50;99.90
31799;DHT22;18374;51.136;3.502;2023-04-24T02:42:39;8.50;99.90
31799;DHT22;18374;51.136;3.502;2023-04-24T02:45:08;8.40;99.90
31799;DHT22;18374;51.136;3.502;2023-04-24T02:47:36;8.40;99.90
31799;DHT22;18374;51.136;3.502;2023-04-24T02:50:04;8.40;99.90
31799;DHT22;18374;51.136;3.502;2023-04-24T02:52:33;8.40;99.90
31799;DHT22;18374;51.136;3.502;2023-04-24T02:55:00;8.30;99.90
31799;DHT22;18374;51.136;3.502;2023-04-24T02:57:28;8.40;99.90
31799;DHT22;18374;51.136;3.502;2023-04-24T02:59:56;8.30;99.90
31799;DHT22;18374;51.136;3.502;2023-04-24T03:02:24;8.30;99.90
31799;DHT22;18374;51.136;3.502;2023-04-24T03:04:52;8.30;99.90
31799;DHT22;18374;51.136;3.502;2023-04-24T03:07:20;8.30;99.90
31799;DHT22;18374;51.136;3.502;2023-04-24T03:09:48;8.30;99.90
31799;DHT22;18374;51.136;3.502;2023-04-24T03:12:16;8.20;99.90
31799;DHT22;18374;51.136;3.502;2023-04-24T03:14:45;8.20;99.90
31799;DHT22;18374;51.136;3.502;2023-04-24T03:17:13;8.20;99.90
31799;DHT22;18374;51.136;3.502;2023-04-24T03:19:40;8.20;99.90
31799;DHT22;18374;51.136;3.502;2023-04-24T03:22:11;8.20;99.90
31799;DHT22;18374;51.136;3.502;2023-04-24T03:24:40;8.10;99.90
31799;DHT22;18374;51.136;3.502;2023-04-24T03:27:09;8.10;99.90
31799;DHT22;18374;51.136;3.502;2023-04-24T03:29:55;8.10;99.90
31799;DHT22;18374;51.136;3.502;2023-04-24T03:32:41;8.00;99.90
31799;DHT22;18374;51.136;3.502;2023-04-24T03:35:12;8.00;99.90
31799;DHT22;18374;51.136;3.502;2023-04-24T03:37:40;8.00;99.90
31799;DHT22;18374;51.136;3.502;2023-04-24T03:40:34;8.00;99.90
31799;DHT22;18374;51.136;3.502;2023-04-24T03:43:05;8.00;99.90
31799;DHT22;18374;51.136;3.502;2023-04-24T03:45:33;7.90;99.90
31799;DHT22;18374;51.136;3.502;2023-04-24T03:48:01;7.90;99.90
31799;DHT22;18374;51.136;3.502;2023-04-24T03:50:29;7.90;99.90
31799;DHT22;18374;51.136;3.502;2023-04-24T03:52:58;7.90;99.90
31799;DHT22;18374;51.136;3.502;2023-04-24T03:55:39;7.90;99.90
31799;DHT22;18374;51.136;3.502;2023-04-24T03:58:07;7.90;99.90
31799;DHT22;18374;51.136;3.502;2023-04-24T04:00:35;7.90;99.90
31799;DHT22;18374;51.136;3.502;2023-04-24T04:03:43;7.90;99.90
31799;DHT22;18374;51.136;3.502;2023-04-24T04:06:11;8.00;99.90
31799;DHT22;18374;51.136;3.502;2023-04-24T04:08:41;7.90;99.90
31799;DHT22;18374;51.136;3.502;2023-04-24T04:11:09;7.90;99.90
31799;DHT22;18374;51.136;3.502;2023-04-24T04:13:37;7.90;99.90
31799;DHT22;18374;51.136;3.502;2023-04-24T04:16:05;7.80;99.90
31799;DHT22;18374;51.136;3.502;2023-04-24T04:18:33;7.90;99.90
31799;DHT22;18374;51.136;3.502;2023-04-24T04:21:01;7.80;99.90
31799;DHT22;18374;51.136;3.502;2023-04-24T04:23:29;7.80;99.90
31799;DHT22;18374;51.136;3.502;2023-04-24T04:26:12;7.80;99.90
31799;DHT22;18374;51.136;3.502;2023-04-24T04:28:59;7.80;99.90
31799;DHT22;18374;51.136;3.502;2023-04-24T04:31:32;7.80;99.90
31799;DHT22;18374;51.136;3.502;2023-04-24T04:34:05;7.80;99.90
31799;DHT22;18374;51.136;3.502;2023-04-24T04:36:34;7.80;99.90
31799;DHT22;18374;51.136;3.502;2023-04-24T04:39:18;7.80;99.90
31799;DHT22;18374;51.136;3.502;2023-04-24T04:42:00;7.80;99.90
31799;DHT22;18374;51.136;3.502;2023-04-24T04:44:35;7.80;99.90
31799;DHT22;18374;51.136;3.502;2023-04-24T04:47:05;7.80;99.90
31799;DHT22;18374;51.136;3.502;2023-04-24T04:49:36;7.80;99.90
31799;DHT22;18374;51.136;3.502;2023-04-24T04:52:10;7.80;99.90
31799;DHT22;18374;51.136;3.502;2023-04-24T04:54:38;7.80;99.90
31799;DHT22;18374;51.136;3.502;2023-04-24T04:57:07;7.80;99.90
31799;DHT22;18374;51.136;3.502;2023-04-24T04:59:36;7.80;99.90
31799;DHT22;18374;51.136;3.502;2023-04-24T05:02:09;7.90;99.90
31799;DHT22;18374;51.136;3.502;2023-04-24T05:04:37;7.80;99.90
31799;DHT22;18374;51.136;3.502;2023-04-24T05:07:05;7.80;99.90
31799;DHT22;18374;51.136;3.502;2023-04-24T05:09:37;7.80;99.90
31799;DHT22;18374;51.136;3.502;2023-04-24T05:12:06;7.90;99.90
31799;DHT22;18374;51.136;3.502;2023-04-24T05:14:42;7.90;99.90
31799;DHT22;18374;51.136;3.502;2023-04-24T05:17:11;8.00;99.90
31799;DHT22;18374;51.136;3.502;2023-04-24T05:19:40;8.00;99.90
31799;DHT22;18374;51.136;3.502;2023-04-24T05:22:09;8.00;99.90
31799;DHT22;18374;51.136;3.502;2023-04-24T05:24:47;8.00;99.90
31799;DHT22;18374;51.136;3.502;2023-04-24T05:27:32;8.00;99.90
31799;DHT22;18374;51.136;3.502;2023-04-24T05:30:02;8.00;99.90
31799;DHT22;18374;51.136;3.502;2023-04-24T05:32:32;8.00;99.90
31799;DHT22;18374;51.136;3.502;2023-04-24T05:34:59;8.00;99.90
31799;DHT22;18374;51.136;3.502;2023-04-24T05:37:27;8.00;99.90
31799;DHT22;18374;51.136;3.502;2023-04-24T05:39:55;8.00;99.90
31799;DHT22;18374;51.136;3.502;2023-04-24T05:42:23;8.10;99.90
31799;DHT22;18374;51.136;3.502;2023-04-24T05:44:51;8.10;99.90
31799;DHT22;18374;51.136;3.502;2023-04-24T05:47:20;8.10;99.90
31799;DHT22;18374;51.136;3.502;2023-04-24T05:49:50;8.10;99.90
31799;DHT22;18374;51.136;3.502;2023-04-24T05:52:18;8.10;99.90
31799;DHT22;18374;51.136;3.502;2023-04-24T05:54:46;8.10;99.90
31799;DHT22;18374;51.136;3.502;2023-04-24T05:57:19;8.20;99.90
31799;DHT22;18374;51.136;3.502;2023-04-24T06:00:01;8.20;99.90
31799;DHT22;18374;51.136;3.502;2023-04-24T06:02:39;8.20;99.90
31799;DHT22;18374;51.136;3.502;2023-04-24T06:05:11;8.20;99.90
31799;DHT22;18374;51.136;3.502;2023-04-24T06:07:39;8.20;99.90
31799;DHT22;18374;51.136;3.502;2023-04-24T06:10:08;8.30;99.90
31799;DHT22;18374;51.136;3.502;2023-04-24T06:12:41;8.30;99.90
31799;DHT22;18374;51.136;3.502;2023-04-24T06:15:15;8.40;99.90
31799;DHT22;18374;51.136;3.502;2023-04-24T06:18:06;8.40;99.90
31799;DHT22;18374;51.136;3.502;2023-04-24T06:20:36;8.30;99.90
31799;DHT22;18374;51.136;3.502;2023-04-24T06:23:03;8.30;99.90
31799;DHT22;18374;51.136;3.502;2023-04-24T06:25:33;8.30;99.90
31799;DHT22;18374;51.136;3.502;2023-04-24T06:28:01;8.40;99.90
31799;DHT22;18374;51.136;3.502;2023-04-24T06:30:31;8.40;99.90
31799;DHT22;18374;51.136;3.502;2023-04-24T06:32:58;8.50;99.90
31799;DHT22;18374;51.136;3.502;2023-04-24T06:35:45;8.50;99.90
31799;DHT22;18374;51.136;3.502;2023-04-24T06:38:13;8.50;99.90
31799;DHT22;18374;51.136;3.502;2023-04-24T06:40:41;8.50;99.90
31799;DHT22;18374;51.136;3.502;2023-04-24T06:43:11;8.50;99.90
31799;DHT22;18374;51.136;3.502;2023-04-24T06:45:39;8.50;99.90
31799;DHT22;18374;51.136;3.502;2023-04-24T06:48:07;8.50;99.90
31799;DHT22;18374;51.136;3.502;2023-04-24T06:50:35;8.60;99.90
31799;DHT22;18374;51.136;3.502;2023-04-24T06:53:02;8.50;99.90
31799;DHT22;18374;51.136;3.502;2023-04-24T06:55:30;8.50;99.90
31799;DHT22;18374;51.136;3.502;2023-04-24T06:57:58;8.50;99.90
31799;DHT22;18374;51.136;3.502;2023-04-24T07:00:26;8.50;99.90
31799;DHT22;18374;51.136;3.502;2023-04-24T07:02:54;8.50;99.90
31799;DHT22;18374;51.136;3.502;2023-04-24T07:05:22;8.60;99.90
31799;DHT22;18374;51.136;3.502;2023-04-24T07:07:50;8.70;99.90
31799;DHT22;18374;51.136;3.502;2023-04-24T07:10:18;8.70;99.90
31799;DHT22;18374;51.136;3.502;2023-04-24T07:12:47;8.80;99.90
31799;DHT22;18374;51.136;3.502;2023-04-24T07:15:15;8.70;99.90
31799;DHT22;18374;51.136;3.502;2023-04-24T07:17:43;8.70;99.90
31799;DHT22;18374;51.136;3.502;2023-04-24T07:20:11;8.70;99.90
31799;DHT22;18374;51.136;3.502;2023-04-24T07:22:39;8.70;99.90
31799;DHT22;18374;51.136;3.502;2023-04-24T07:25:07;8.70;99.90
31799;DHT22;18374;51.136;3.502;2023-04-24T07:27:35;8.70;99.90
31799;DHT22;18374;51.136;3.502;2023-04-24T07:30:05;8.70;99.90
31799;DHT22;18374;51.136;3.502;2023-04-24T07:32:34;8.70;99.90
31799;DHT22;18374;51.136;3.502;2023-04-24T07:35:02;8.70;99.90
31799;DHT22;18374;51.136;3.502;2023-04-24T07:37:30;8.60;99.90
31799;DHT22;18374;51.136;3.502;2023-04-24T07:39:58;8.60;99.90
31799;DHT22;18374;51.136;3.502;2023-04-24T07:42:26;8.50;99.90
31799;DHT22;18374;51.136;3.502;2023-04-24T07:44:53;8.60;99.90
31799;DHT22;18374;51.136;3.502;2023-04-24T07:47:21;8.90;99.90
31799;DHT22;18374;51.136;3.502;2023-04-24T07:49:49;9.10;99.90
31799;DHT22;18374;51.136;3.502;2023-04-24T07:52:17;9.20;99.90
31799;DHT22;18374;51.136;3.502;2023-04-24T07:54:45;9.40;99.90
31799;DHT22;18374;51.136;3.502;2023-04-24T07:57:13;9.60;99.90
31799;DHT22;18374;51.136;3.502;2023-04-24T07:59:41;9.70;99.90
31799;DHT22;18374;51.136;3.502;2023-04-24T08:02:09;9.50;99.90
31799;DHT22;18374;51.136;3.502;2023-04-24T08:04:37;9.20;99.90
31799;DHT22;18374;51.136;3.502;2023-04-24T08:07:05;9.10;99.90
31799;DHT22;18374;51.136;3.502;2023-04-24T08:09:33;9.20;99.90
31799;DHT22;18374;51.136;3.502;2023-04-24T08:12:01;9.50;99.90
31799;DHT22;18374;51.136;3.502;2023-04-24T08:14:29;9.70;99.90
31799;DHT22;18374;51.136;3.502;2023-04-24T08:16:57;9.90;99.90
31799;DHT22;18374;51.136;3.502;2023-04-24T08:19:27;9.70;99.90
31799;DHT22;18374;51.136;3.502;2023-04-24T08:21:55;9.80;99.90
31799;DHT22;18374;51.136;3.502;2023-04-24T08:24:23;9.70;99.90
31799;DHT22;18374;51.136;3.502;2023-04-24T08:26:50;9.50;99.90
31799;DHT22;18374;51.136;3.502;2023-04-24T08:29:19;9.60;99.90
31799;DHT22;18374;51.136;3.502;2023-04-24T08:31:47;9.80;99.90
31799;DHT22;18374;51.136;3.502;2023-04-24T08:34:15;10.00;99.90
31799;DHT22;18374;51.136;3.502;2023-04-24T08:36:42;10.20;99.90
31799;DHT22;18374;51.136;3.502;2023-04-24T08:39:14;10.20;99.90
31799;DHT22;18374;51.136;3.502;2023-04-24T08:41:43;10.00;99.90
31799;DHT22;18374;51.136;3.502;2023-04-24T08:44:13;9.90;99.90
31799;DHT22;18374;51.136;3.502;2023-04-24T08:46:43;9.70;99.90
31799;DHT22;18374;51.136;3.502;2023-04-24T08:49:14;9.50;99.90
31799;DHT22;18374;51.136;3.502;2023-04-24T08:51:45;9.50;99.90
31799;DHT22;18374;51.136;3.502;2023-04-24T08:54:15;9.50;99.90
31799;DHT22;18374;51.136;3.502;2023-04-24T08:56:44;9.60;99.90
31799;DHT22;18374;51.136;3.502;2023-04-24T08:59:12;9.60;99.90
31799;DHT22;18374;51.136;3.502;2023-04-24T09:01:41;9.60;99.90
31799;DHT22;18374;51.136;3.502;2023-04-24T09:04:09;9.70;99.90
31799;DHT22;18374;51.136;3.502;2023-04-24T09:06:38;9.60;99.90
31799;DHT22;18374;51.136;3.502;2023-04-24T09:09:07;9.60;99.90
31799;DHT22;18374;51.136;3.502;2023-04-24T09:11:36;9.60;99.90
31799;DHT22;18374;51.136;3.502;2023-04-24T09:14:05;9.50;99.90
31799;DHT22;18374;51.136;3.502;2023-04-24T09:16:33;9.70;99.90
31799;DHT22;18374;51.136;3.502;2023-04-24T09:19:03;9.80;99.90
31799;DHT22;18374;51.136;3.502;2023-04-24T09:21:35;10.00;99.90
31799;DHT22;18374;51.136;3.502;2023-04-24T09:24:08;10.00;99.90
31799;DHT22;18374;51.136;3.502;2023-04-24T09:26:45;10.10;99.90
31799;DHT22;18374;51.136;3.502;2023-04-24T09:29:16;10.00;99.90
31799;DHT22;18374;51.136;3.502;2023-04-24T09:31:45;10.00;99.90
31799;DHT22;18374;51.136;3.502;2023-04-24T09:34:13;9.90;99.90
31799;DHT22;18374;51.136;3.502;2023-04-24T09:36:42;10.00;99.90
31799;DHT22;18374;51.136;3.502;2023-04-24T09:39:16;10.20;99.90
31799;DHT22;18374;51.136;3.502;2023-04-24T09:41:44;10.30;99.90
31799;DHT22;18374;51.136;3.502;2023-04-24T09:44:19;10.30;99.90
31799;DHT22;18374;51.136;3.502;2023-04-24T09:46:57;10.40;99.90
31799;DHT22;18374;51.136;3.502;2023-04-24T09:49:30;10.50;99.90
31799;DHT22;18374;51.136;3.502;2023-04-24T09:52:05;10.50;99.90
31799;DHT22;18374;51.136;3.502;2023-04-24T09:54:34;10.40;99.90
31799;DHT22;18374;51.136;3.502;2023-04-24T09:57:04;10.70;99.90
31799;DHT22;18374;51.136;3.502;2023-04-24T09:59:32;10.90;99.90
31799;DHT22;18374;51.136;3.502;2023-04-24T10:02:17;10.90;99.90
31799;DHT22;18374;51.136;3.502;2023-04-24T10:04:56;10.60;99.90
31799;DHT22;18374;51.136;3.502;2023-04-24T10:07:27;10.70;99.90
31799;DHT22;18374;51.136;3.502;2023-04-24T10:09:55;10.70;99.90
31799;DHT22;18374;51.136;3.502;2023-04-24T10:12:23;10.80;99.90
31799;DHT22;18374;51.136;3.502;2023-04-24T10:14:52;10.70;99.90
31799;DHT22;18374;51.136;3.502;2023-04-24T10:17:21;10.60;99.90
31799;DHT22;18374;51.136;3.502;2023-04-24T10:19:49;10.60;99.90
31799;DHT22;18374;51.136;3.502;2023-04-24T10:22:17;10.90;99.90
31799;DHT22;18374;51.136;3.502;2023-04-24T10:24:47;11.10;99.90
31799;DHT22;18374;51.136;3.502;2023-04-24T10:27:16;10.90;99.90
31799;DHT22;18374;51.136;3.502;2023-04-24T10:29:45;10.90;99.90
31799;DHT22;18374;51.136;3.502;2023-04-24T10:32:15;11.40;99.90
31799;DHT22;18374;51.136;3.502;2023-04-24T10:34:42;11.60;99.90
31799;DHT22;18374;51.136;3.502;2023-04-24T10:37:10;11.60;99.90
31799;DHT22;18374;51.136;3.502;2023-04-24T10:39:40;11.30;99.90
31799;DHT22;18374;51.136;3.502;2023-04-24T10:42:16;11.10;99.90
31799;DHT22;18374;51.136;3.502;2023-04-24T10:44:47;11.00;99.90
31799;DHT22;18374;51.136;3.502;2023-04-24T10:47:16;11.50;99.90
31799;DHT22;18374;51.136;3.502;2023-04-24T10:49:44;11.60;99.90
31799;DHT22;18374;51.136;3.502;2023-04-24T10:52:14;11.50;99.90
31799;DHT22;18374;51.136;3.502;2023-04-24T10:54:45;11.60;99.90
31799;DHT22;18374;51.136;3.502;2023-04-24T11:00:10;11.50;99.90
31799;DHT22;18374;51.136;3.502;2023-04-24T11:02:41;11.60;99.90
31799;DHT22;18374;51.136;3.502;2023-04-24T11:05:17;11.80;99.90
31799;DHT22;18374;51.136;3.502;2023-04-24T11:08:14;11.70;99.90
31799;DHT22;18374;51.136;3.502;2023-04-24T11:10:45;12.10;99.90
31799;DHT22;18374;51.136;3.502;2023-04-24T11:13:27;11.90;99.90
31799;DHT22;18374;51.136;3.502;2023-04-24T11:16:19;11.40;99.90
31799;DHT22;18374;51.136;3.502;2023-04-24T11:18:52;11.30;99.90
31799;DHT22;18374;51.136;3.502;2023-04-24T11:27:21;12.00;99.90
31799;DHT22;18374;51.136;3.502;2023-04-24T11:30:00;11.80;99.90
31799;DHT22;18374;51.136;3.502;2023-04-24T11:32:39;11.70;99.90
31799;DHT22;18374;51.136;3.502;2023-04-24T11:35:15;11.90;99.90
31799;DHT22;18374;51.136;3.502;2023-04-24T11:37:49;11.60;99.90
31799;DHT22;18374;51.136;3.502;2023-04-24T11:40:39;11.40;99.90
31799;DHT22;18374;51.136;3.502;2023-04-24T11:43:09;11.20;99.90
31799;DHT22;18374;51.136;3.502;2023-04-24T11:45:36;11.50;99.90
31799;DHT22;18374;51.136;3.502;2023-04-24T11:48:04;12.00;99.90
31799;DHT22;18374;51.136;3.502;2023-04-24T11:50:32;12.00;99.90
31799;DHT22;18374;51.136;3.502;2023-04-24T11:53:02;11.60;99.90
31799;DHT22;18374;51.136;3.502;2023-04-24T11:55:31;11.40;99.90
31799;DHT22;18374;51.136;3.502;2023-04-24T11:57:59;11.40;99.90
31799;DHT22;18374;51.136;3.502;2023-04-24T12:00:30;11.50;99.90
31799;DHT22;18374;51.136;3.502;2023-04-24T12:03:09;11.60;99.90
31799;DHT22;18374;51.136;3.502;2023-04-24T12:05:39;11.90;99.90
31799;DHT22;18374;51.136;3.502;2023-04-24T12:08:08;12.20;99.90
31799;DHT22;18374;51.136;3.502;2023-04-24T12:10:36;12.20;99.90
31799;DHT22;18374;51.136;3.502;2023-04-24T12:13:04;12.40;99.90
31799;DHT22;18374;51.136;3.502;2023-04-24T12:15:32;12.20;99.90
31799;DHT22;18374;51.136;3.502;2023-04-24T12:18:00;11.90;99.90
31799;DHT22;18374;51.136;3.502;2023-04-24T12:20:30;11.70;99.90
31799;DHT22;18374;51.136;3.502;2023-04-24T12:23:00;11.80;99.90
31799;DHT22;18374;51.136;3.502;2023-04-24T12:25:32;11.70;99.90
31799;DHT22;18374;51.136;3.502;2023-04-24T12:30:35;11.80;99.90
31799;DHT22;18374;51.136;3.502;2023-04-24T12:33:07;11.60;99.90
31799;DHT22;18374;51.136;3.502;2023-04-24T12:35:35;11.60;99.90
31799;DHT22;18374;51.136;3.502;2023-04-24T12:38:07;11.60;99.90
31799;DHT22;18374;51.136;3.502;2023-04-24T12:40:36;12.00;99.90
31799;DHT22;18374;51.136;3.502;2023-04-24T12:43:16;12.30;99.90
31799;DHT22;18374;51.136;3.502;2023-04-24T12:45:47;12.10;99.90
31799;DHT22;18374;51.136;3.502;2023-04-24T12:48:15;12.10;99.90
31799;DHT22;18374;51.136;3.502;2023-04-24T12:50:43;12.80;99.90
31799;DHT22;18374;51.136;3.502;2023-04-24T12:53:14;13.10;99.90
31799;DHT22;18374;51.136;3.502;2023-04-24T12:55:43;13.50;99.90
31799;DHT22;18374;51.136;3.502;2023-04-24T12:58:12;13.70;99.90
31799;DHT22;18374;51.136;3.502;2023-04-24T13:00:40;14.00;99.90
31799;DHT22;18374;51.136;3.502;2023-04-24T13:03:11;14.20;99.90
31799;DHT22;18374;51.136;3.502;2023-04-24T13:05:39;13.70;99.90
31799;DHT22;18374;51.136;3.502;2023-04-24T13:08:08;13.00;99.90
31799;DHT22;18374;51.136;3.502;2023-04-24T13:10:35;12.80;99.90
31799;DHT22;18374;51.136;3.502;2023-04-24T13:13:03;12.60;99.90
31799;DHT22;18374;51.136;3.502;2023-04-24T13:15:31;13.10;99.90
31799;DHT22;18374;51.136;3.502;2023-04-24T13:18:01;13.60;99.90
31799;DHT22;18374;51.136;3.502;2023-04-24T13:20:29;13.70;99.90
31799;DHT22;18374;51.136;3.502;2023-04-24T13:22:57;13.10;99.90
31799;DHT22;18374;51.136;3.502;2023-04-24T13:25:25;12.60;99.90
31799;DHT22;18374;51.136;3.502;2023-04-24T13:27:53;13.20;99.90
31799;DHT22;18374;51.136;3.502;2023-04-24T13:30:21;14.20;99.90
31799;DHT22;18374;51.136;3.502;2023-04-24T13:32:49;15.10;98.30
31799;DHT22;18374;51.136;3.502;2023-04-24T13:35:17;15.30;98.40
31799;DHT22;18374;51.136;3.502;2023-04-24T13:37:44;16.10;98.90
31799;DHT22;18374;51.136;3.502;2023-04-24T13:40:12;16.20;96.90
31799;DHT22;18374;51.136;3.502;2023-04-24T13:42:40;15.80;97.90
31799;DHT22;18374;51.136;3.502;2023-04-24T13:45:08;15.00;98.90
31799;DHT22;18374;51.136;3.502;2023-04-24T13:47:51;14.70;98.50
31799;DHT22;18374;51.136;3.502;2023-04-24T13:50:21;14.20;98.50
31799;DHT22;18374;51.136;3.502;2023-04-24T13:52:49;14.20;98.50
31799;DHT22;18374;51.136;3.502;2023-04-24T13:55:17;14.60;98.50
31799;DHT22;18374;51.136;3.502;2023-04-24T13:57:45;15.10;99.60
31799;DHT22;18374;51.136;3.502;2023-04-24T14:00:13;15.40;97.00
31799;DHT22;18374;51.136;3.502;2023-04-24T14:02:41;15.40;97.10
31799;DHT22;18374;51.136;3.502;2023-04-24T14:05:09;14.70;97.50
31799;DHT22;18374;51.136;3.502;2023-04-24T14:07:38;13.90;98.60
31799;DHT22;18374;51.136;3.502;2023-04-24T14:10:07;14.20;99.90
31799;DHT22;18374;51.136;3.502;2023-04-24T14:12:35;15.20;99.90
31799;DHT22;18374;51.136;3.502;2023-04-24T14:15:04;16.00;96.20
31799;DHT22;18374;51.136;3.502;2023-04-24T14:17:32;15.60;96.80
31799;DHT22;18374;51.136;3.502;2023-04-24T14:20:00;15.50;97.70
31799;DHT22;18374;51.136;3.502;2023-04-24T14:22:28;15.60;98.10
31799;DHT22;18374;51.136;3.502;2023-04-24T14:24:55;15.90;96.00
31799;DHT22;18374;51.136;3.502;2023-04-24T14:27:24;16.70;96.90
31799;DHT22;18374;51.136;3.502;2023-04-24T14:29:53;17.80;94.50
31799;DHT22;18374;51.136;3.502;2023-04-24T14:32:20;17.50;93.40
31799;DHT22;18374;51.136;3.502;2023-04-24T14:34:49;17.10;91.70
31799;DHT22;18374;51.136;3.502;2023-04-24T14:37:16;16.40;94.40
31799;DHT22;18374;51.136;3.502;2023-04-24T14:39:45;15.70;94.30
31799;DHT22;18374;51.136;3.502;2023-04-24T14:42:33;14.70;94.90
31799;DHT22;18374;51.136;3.502;2023-04-24T14:45:01;13.60;97.00
31799;DHT22;18374;51.136;3.502;2023-04-24T14:47:29;13.30;96.80
31799;DHT22;18374;51.136;3.502;2023-04-24T14:49:58;13.20;97.80
31799;DHT22;18374;51.136;3.502;2023-04-24T14:52:26;13.20;98.90
31799;DHT22;18374;51.136;3.502;2023-04-24T14:54:54;13.20;99.90
31799;DHT22;18374;51.136;3.502;2023-04-24T14:57:22;13.40;99.20
31799;DHT22;18374;51.136;3.502;2023-04-24T14:59:50;13.40;99.20
31799;DHT22;18374;51.136;3.502;2023-04-24T15:02:41;13.60;98.60
31799;DHT22;18374;51.136;3.502;2023-04-24T15:05:12;14.40;99.80
31799;DHT22;18374;51.136;3.502;2023-04-24T15:07:40;15.20;96.50
31799;DHT22;18374;51.136;3.502;2023-04-24T15:10:09;15.20;94.40
31799;DHT22;18374;51.136;3.502;2023-04-24T15:12:37;14.70;96.90
31799;DHT22;18374;51.136;3.502;2023-04-24T15:15:06;15.00;97.90
31799;DHT22;18374;51.136;3.502;2023-04-24T15:17:34;15.30;96.40
31799;DHT22;18374;51.136;3.502;2023-04-24T15:20:02;15.70;96.40
31799;DHT22;18374;51.136;3.502;2023-04-24T15:22:31;16.00;95.90
31799;DHT22;18374;51.136;3.502;2023-04-24T15:24:58;15.60;95.70
31799;DHT22;18374;51.136;3.502;2023-04-24T15:27:26;15.00;95.00
31799;DHT22;18374;51.136;3.502;2023-04-24T15:29:54;14.20;97.40
31799;DHT22;18374;51.136;3.502;2023-04-24T15:32:22;13.30;97.90
31799;DHT22;18374;51.136;3.502;2023-04-24T15:34:50;12.70;99.60
31799;DHT22;18374;51.136;3.502;2023-04-24T15:37:33;12.30;99.90
31799;DHT22;18374;51.136;3.502;2023-04-24T15:40:02;12.50;99.90
31799;DHT22;18374;51.136;3.502;2023-04-24T15:42:32;12.40;99.90
31799;DHT22;18374;51.136;3.502;2023-04-24T15:45:00;12.60;99.90
31799;DHT22;18374;51.136;3.502;2023-04-24T15:47:28;12.50;99.90
31799;DHT22;18374;51.136;3.502;2023-04-24T15:49:57;12.50;99.90
31799;DHT22;18374;51.136;3.502;2023-04-24T15:52:25;12.60;99.90
31799;DHT22;18374;51.136;3.502;2023-04-24T15:54:53;12.50;99.90
31799;DHT22;18374;51.136;3.502;2023-04-24T15:57:21;12.50;99.90
31799;DHT22;18374;51.136;3.502;2023-04-24T15:59:48;12.50;99.90
31799;DHT22;18374;51.136;3.502;2023-04-24T16:02:16;12.50;99.90
31799;DHT22;18374;51.136;3.502;2023-04-24T16:04:48;12.50;99.90
31799;DHT22;18374;51.136;3.502;2023-04-24T16:07:17;12.60;99.90
31799;DHT22;18374;51.136;3.502;2023-04-24T16:09:45;12.50;99.90